Time;durP1;ratioP1;P1;durP2;ratioP2;P2;SDS_P1;SDS_P2;PMS_P1;PMS_P2;Temp;Humidity;BMP_temperature;BMP_pressure;BME280_temperature;BME280_humidity;BME280_pressure;Samples;Min_cycle;Max_cycle;Signal;HPM_P1;HPM_P2
2022/06/16 00:00:57;;;;;;;3.83;2.25;;;20.30;78.80;;;;;;1880908;75;21101;-63
2022/06/16 00:03:27;;;;;;;5.80;2.50;;;20.30;78.70;;;;;;1880749;76;21008;-62
2022/06/16 00:05:56;;;;;;;2.47;2.27;;;20.30;78.50;;;;;;1880876;75;21036;-62
2022/06/16 00:08:26;;;;;;;2.65;2.30;;;20.30;78.40;;;;;;1880833;76;21032;-62
2022/06/16 00:13:42;;;;;;;4.72;2.95;;;20.20;78.30;;;;;;1880872;75;21059;-62
2022/06/16 00:16:12;;;;;;;2.40;1.90;;;20.20;78.30;;;;;;1880779;75;21027;-62
2022/06/16 00:18:42;;;;;;;4.60;2.62;;;20.20;78.20;;;;;;1880792;75;21028;-62
2022/06/16 00:21:12;;;;;;;6.50;2.30;;;20.20;78.10;;;;;;1880902;75;21027;-62
2022/06/16 00:23:41;;;;;;;5.80;2.60;;;20.20;77.80;;;;;;1880846;76;21031;-62
2022/06/16 00:26:22;;;;;;;4.35;2.10;;;20.20;77.70;;;;;;1875765;75;21036;-62
2022/06/16 00:28:53;;;;;;;2.72;2.30;;;20.10;77.30;;;;;;1874651;76;21474;-62
2022/06/16 00:31:24;;;;;;;4.08;2.10;;;20.10;76.90;;;;;;1879187;76;21031;-62
2022/06/16 00:33:53;;;;;;;5.53;2.65;;;20.10;76.50;;;;;;1874624;76;21072;-62
2022/06/16 00:36:24;;;;;;;4.15;2.60;;;20.00;76.40;;;;;;1874652;76;21094;-62
2022/06/16 00:38:53;;;;;;;2.15;1.95;;;20.00;76.20;;;;;;1874594;75;21067;-62
2022/06/16 00:41:23;;;;;;;2.30;2.00;;;20.00;76.80;;;;;;1874822;75;21028;-62
2022/06/16 00:43:52;;;;;;;4.10;2.08;;;20.10;76.10;;;;;;1874709;76;21094;-62
2022/06/16 00:46:22;;;;;;;3.45;1.90;;;20.00;75.80;;;;;;1874596;75;21118;-62
2022/06/16 00:48:55;;;;;;;3.27;2.15;;;20.00;75.90;;;;;;1874700;76;21472;-62
2022/06/16 00:51:45;;;;;;;2.95;2.22;;;20.00;76.10;;;;;;1874625;76;21153;-62
2022/06/16 00:54:23;;;;;;;4.08;2.15;;;20.00;76.10;;;;;;1874638;75;21084;-62
2022/06/16 00:56:55;;;;;;;6.92;2.83;;;20.00;76.50;;;;;;1874739;75;21115;-62
2022/06/16 00:59:24;;;;;;;5.80;2.20;;;20.00;76.60;;;;;;1874666;75;21071;-63
2022/06/16 01:01:54;;;;;;;3.10;2.10;;;20.00;76.50;;;;;;1874605;75;21572;-62
2022/06/16 01:07:13;;;;;;;2.50;2.00;;;19.90;76.30;;;;;;1874621;76;21044;-62
2022/06/16 01:09:43;;;;;;;4.85;2.10;;;19.90;76.60;;;;;;1874641;76;21028;-62
2022/06/16 01:15:31;;;;;;;3.58;2.25;;;19.80;76.60;;;;;;1874644;76;21052;-62
2022/06/16 01:18:33;;;;;;;2.85;2.33;;;19.80;76.60;;;;;;1874684;76;21033;-62
2022/06/16 01:21:11;;;;;;;5.37;2.22;;;19.80;76.90;;;;;;1874718;75;21110;-62
2022/06/16 01:23:52;;;;;;;2.47;1.70;;;19.80;76.90;;;;;;1874625;76;21102;-62
2022/06/16 01:26:47;;;;;;;2.47;2.10;;;19.70;76.70;;;;;;1874836;76;21150;-62
2022/06/16 01:29:28;;;;;;;5.00;2.40;;;19.80;76.90;;;;;;1874199;75;21131;-62
2022/06/16 01:32:06;;;;;;;2.95;2.37;;;19.70;76.80;;;;;;1874749;76;21533;-62
2022/06/16 01:34:41;;;;;;;4.92;2.22;;;19.70;77.10;;;;;;1874846;76;21024;-62
2022/06/16 01:37:25;;;;;;;4.10;2.15;;;19.70;77.30;;;;;;1874905;75;21027;-62
2022/06/16 01:40:03;;;;;;;4.70;2.10;;;19.70;77.30;;;;;;1875217;76;21564;-62
2022/06/16 01:43:00;;;;;;;3.27;2.17;;;19.70;77.30;;;;;;1874794;76;21028;-62
2022/06/16 01:45:38;;;;;;;3.37;2.00;;;19.70;77.30;;;;;;1855323;76;21486;-63
2022/06/16 01:48:12;;;;;;;1.92;1.65;;;19.70;77.40;;;;;;1874687;76;21109;-63
2022/06/16 01:50:44;;;;;;;3.40;2.20;;;19.70;77.40;;;;;;1874878;76;21130;-63
2022/06/16 01:53:16;;;;;;;5.55;2.25;;;19.70;77.20;;;;;;1874631;75;21423;-63
2022/06/16 01:55:50;;;;;;;6.40;2.75;;;19.70;77.10;;;;;;1874764;76;21520;-63
2022/06/16 01:58:22;;;;;;;20.55;5.33;;;19.70;77.20;;;;;;1874954;75;21110;-63
2022/06/16 02:00:55;;;;;;;6.78;2.42;;;19.70;77.20;;;;;;1874821;76;21082;-63
2022/06/16 02:03:30;;;;;;;5.40;2.47;;;19.70;77.30;;;;;;1874866;76;21083;-63
2022/06/16 02:06:15;;;;;;;4.90;2.47;;;19.70;77.30;;;;;;1874728;76;21478;-63
2022/06/16 02:08:47;;;;;;;8.55;2.20;;;19.70;77.30;;;;;;1874615;76;21083;-63
2022/06/16 02:11:20;;;;;;;3.65;2.08;;;19.70;77.60;;;;;;1874653;76;21000;-63
2022/06/16 02:13:55;;;;;;;4.22;1.87;;;19.80;77.60;;;;;;1874872;75;21024;-63
2022/06/16 02:16:34;;;;;;;9.68;2.62;;;19.80;77.40;;;;;;1861733;76;21051;-63
2022/06/16 02:19:06;;;;;;;4.80;2.17;;;19.80;77.80;;;;;;1874694;76;21105;-63
2022/06/16 02:21:47;;;;;;;3.80;1.95;;;19.80;77.50;;;;;;1874892;75;21064;-63
2022/06/16 02:24:20;;;;;;;5.20;2.45;;;19.90;77.80;;;;;;1874748;76;21024;-63
2022/06/16 02:26:51;;;;;;;3.45;1.80;;;19.90;77.60;;;;;;1874181;75;21545;-64
2022/06/16 02:29:26;;;;;;;2.87;1.98;;;20.00;77.30;;;;;;1874735;75;21533;-64
2022/06/16 02:32:09;;;;;;;3.55;2.22;;;20.00;77.30;;;;;;1874850;76;21529;-64
2022/06/16 02:34:56;;;;;;;2.45;1.70;;;20.00;77.00;;;;;;1874723;76;21020;-64
2022/06/16 02:37:46;;;;;;;4.37;2.00;;;20.10;77.20;;;;;;1874727;76;21123;-64
2022/06/16 02:40:38;;;;;;;2.83;2.08;;;20.10;77.10;;;;;;1874086;76;21090;-64
2022/06/16 02:43:13;;;;;;;4.72;1.90;;;20.20;77.10;;;;;;1874840;76;21083;-64
2022/06/16 02:45:49;;;;;;;;;;;20.30;76.70;;;;;;1877969;75;21487;-64
2022/06/16 02:48:26;;;;;;;4.58;2.25;;;20.30;76.30;;;;;;1874840;76;20109;-64
2022/06/16 02:51:04;;;;;;;3.67;2.10;;;20.30;76.50;;;;;;1879153;76;21036;-64
2022/06/16 02:53:43;;;;;;;3.37;2.17;;;20.50;76.60;;;;;;1874764;75;21079;-64
2022/06/16 02:56:28;;;;;;;2.83;2.10;;;20.50;76.10;;;;;;1874722;76;21024;-64
2022/06/16 02:59:00;;;;;;;3.33;2.17;;;20.60;76.20;;;;;;1874841;76;21024;-64
2022/06/16 03:01:32;;;;;;;2.95;1.98;;;20.50;76.00;;;;;;1874837;76;21140;-64
2022/06/16 03:04:08;;;;;;;4.28;2.27;;;20.60;76.10;;;;;;1874689;76;21040;-64
2022/06/16 03:06:38;;;;;;;2.25;1.98;;;20.60;76.20;;;;;;1873605;76;21486;-64
2022/06/16 03:09:07;;;;;;;2.85;1.95;;;20.70;76.40;;;;;;1874647;75;21127;-64
2022/06/16 03:11:38;;;;;;;5.55;2.25;;;20.70;76.50;;;;;;1874778;76;21028;-64
2022/06/16 03:14:09;;;;;;;6.40;2.70;;;20.80;75.90;;;;;;1874700;75;21012;-64
2022/06/16 03:16:40;;;;;;;6.22;2.42;;;20.80;76.00;;;;;;1872033;76;21056;-64
2022/06/16 03:19:10;;;;;;;2.85;1.85;;;20.90;76.00;;;;;;1874692;76;21035;-64
2022/06/16 03:21:41;;;;;;;6.58;2.00;;;20.90;75.80;;;;;;1874671;76;21047;-64
2022/06/16 03:24:11;;;;;;;5.80;2.40;;;21.00;75.80;;;;;;1874779;76;21060;-63
2022/06/16 03:26:41;;;;;;;5.97;1.67;;;21.00;75.70;;;;;;1876770;76;21035;-63
2022/06/16 03:29:10;;;;;;;5.90;2.30;;;21.10;75.20;;;;;;1880885;75;21067;-63
2022/06/16 03:31:40;;;;;;;6.40;2.65;;;21.20;75.20;;;;;;1880927;75;21028;-63
2022/06/16 03:34:11;;;;;;;2.50;1.62;;;21.20;74.60;;;;;;1880737;75;21161;-63
2022/06/16 03:36:41;;;;;;;3.52;1.77;;;21.30;74.10;;;;;;1880950;76;21024;-63
2022/06/16 03:39:12;;;;;;;5.00;1.82;;;21.30;73.80;;;;;;1880483;76;21064;-62
2022/06/16 03:41:43;;;;;;;3.20;2.00;;;21.40;73.30;;;;;;1880430;76;21027;-62
2022/06/16 03:44:13;;;;;;;3.33;2.05;;;21.40;73.30;;;;;;1880832;76;21032;-63
2022/06/16 03:46:44;;;;;;;2.87;2.00;;;21.50;73.10;;;;;;1880854;76;21083;-63
2022/06/16 03:49:14;;;;;;;2.40;2.00;;;21.50;73.20;;;;;;1880633;75;21035;-63
2022/06/16 03:51:46;;;;;;;3.77;1.98;;;21.60;72.80;;;;;;1880415;75;21130;-62
2022/06/16 03:54:16;;;;;;;4.55;2.30;;;21.70;72.80;;;;;;1880649;75;21012;-63
2022/06/16 03:56:47;;;;;;;7.22;4.78;;;21.80;72.50;;;;;;1880742;75;21056;-63
2022/06/16 03:59:21;;;;;;;13.00;6.60;;;21.80;72.00;;;;;;1880714;76;21067;-63
2022/06/16 04:01:50;;;;;;;9.13;4.72;;;21.90;71.90;;;;;;1880865;76;21052;-63
2022/06/16 04:04:21;;;;;;;7.83;3.45;;;22.00;71.60;;;;;;1880656;75;21080;-63
2022/06/16 04:06:52;;;;;;;6.92;3.02;;;22.10;71.10;;;;;;1880794;75;21031;-63
2022/06/16 04:09:23;;;;;;;7.72;3.70;;;22.10;70.90;;;;;;1880573;75;21109;-62
2022/06/16 04:11:53;;;;;;;8.53;4.65;;;22.20;70.60;;;;;;1880868;75;21031;-62
2022/06/16 04:14:24;;;;;;;8.15;5.40;;;22.20;70.30;;;;;;1880799;76;21096;-62
2022/06/16 04:16:58;;;;;;;13.70;4.92;;;22.30;69.20;;;;;;1880835;76;21068;-63
2022/06/16 04:19:29;;;;;;;14.95;4.35;;;22.30;69.50;;;;;;1879924;76;21027;-63
2022/06/16 04:21:59;;;;;;;8.15;3.45;;;22.30;68.20;;;;;;1880622;76;21026;-63
2022/06/16 04:24:33;;;;;;;8.75;3.95;;;22.30;68.80;;;;;;1880408;75;21113;-63
2022/06/16 04:27:01;;;;;;;12.78;5.80;;;22.40;69.60;;;;;;1880670;76;21071;-62
2022/06/16 04:29:31;;;;;;;8.55;4.20;;;22.40;69.90;;;;;;1880758;76;21024;-63
2022/06/16 04:32:01;;;;;;;17.50;5.60;;;22.50;69.30;;;;;;1880627;76;21004;-63
2022/06/16 04:34:35;;;;;;;11.03;5.05;;;22.60;69.40;;;;;;1877174;75;21039;-63
2022/06/16 04:37:06;;;;;;;8.78;3.85;;;22.60;68.90;;;;;;1880658;75;21078;-63
2022/06/16 04:39:36;;;;;;;4.72;2.10;;;22.70;68.80;;;;;;1880781;76;21099;-63
2022/06/16 04:42:06;;;;;;;6.65;2.17;;;22.80;68.30;;;;;;1880824;75;21133;-63
2022/06/16 04:44:36;;;;;;;6.50;2.00;;;22.90;68.20;;;;;;1880835;76;21125;-63
2022/06/16 04:47:07;;;;;;;3.27;1.65;;;22.90;68.10;;;;;;1880636;76;21035;-63
2022/06/16 04:49:38;;;;;;;4.33;2.00;;;23.00;66.90;;;;;;1880755;76;21102;-63
2022/06/16 04:52:09;;;;;;;6.92;2.60;;;23.00;67.90;;;;;;1880730;76;21083;-63
2022/06/16 04:54:40;;;;;;;4.35;2.40;;;23.10;67.10;;;;;;1880684;75;21032;-63
2022/06/16 04:57:23;;;;;;;8.10;1.85;;;23.20;66.80;;;;;;1879612;76;21146;-63
2022/06/16 05:00:05;;;;;;;3.55;2.20;;;23.20;66.60;;;;;;1843018;77;21138;-63
2022/06/16 05:02:36;;;;;;;4.65;2.67;;;23.30;66.00;;;;;;1874531;76;21158;-63
2022/06/16 05:05:26;;;;;;;3.62;1.92;;;23.30;66.40;;;;;;1879979;76;21131;-63
2022/06/16 05:07:59;;;;;;;4.40;2.08;;;23.30;66.20;;;;;;1880737;75;21598;-63
2022/06/16 05:10:30;;;;;;;3.75;2.12;;;23.40;66.80;;;;;;1879112;75;21166;-63
2022/06/16 05:13:04;;;;;;;5.17;2.05;;;23.50;66.20;;;;;;1880019;75;21080;-63
2022/06/16 05:15:56;;;;;;;3.10;1.45;;;23.60;65.80;;;;;;1880757;75;21056;-64
2022/06/16 05:18:35;;;;;;;3.42;2.20;;;23.70;65.50;;;;;;1878545;75;21123;-62
2022/06/16 05:21:14;;;;;;;2.27;1.80;;;23.70;65.20;;;;;;1876549;75;21088;-62
2022/06/16 05:23:45;;;;;;;3.67;2.20;;;23.70;65.70;;;;;;1880030;75;21119;-61
2022/06/16 05:26:33;;;;;;;3.85;1.80;;;23.80;65.00;;;;;;1880691;75;21036;-61
2022/06/16 05:29:15;;;;;;;6.15;2.75;;;23.90;64.80;;;;;;1875144;75;21134;-62
2022/06/16 05:32:03;;;;;;;3.62;2.60;;;24.00;64.60;;;;;;1874612;76;21118;-61
2022/06/16 05:34:46;;;;;;;3.15;1.70;;;24.00;62.50;;;;;;1874952;75;21083;-61
2022/06/16 05:37:18;;;;;;;2.75;1.65;;;24.00;63.70;;;;;;1874943;76;21094;-62
2022/06/16 05:40:05;;;;;;;6.12;2.08;;;24.00;62.90;;;;;;1874644;76;21466;-62
2022/06/16 05:42:45;;;;;;;2.67;2.08;;;24.10;62.70;;;;;;1875150;76;21052;-62
2022/06/16 05:45:16;;;;;;;4.15;1.80;;;24.10;61.70;;;;;;1874883;75;21059;-62
2022/06/16 05:47:50;;;;;;;5.58;2.90;;;24.10;61.40;;;;;;1874959;75;21028;-62
2022/06/16 05:50:22;;;;;;;4.15;2.40;;;24.10;61.70;;;;;;1874867;76;21115;-62
2022/06/16 05:52:51;;;;;;;4.20;1.82;;;24.20;61.80;;;;;;1874643;75;21024;-62
2022/06/16 05:55:25;;;;;;;5.75;1.90;;;24.20;61.10;;;;;;1874199;75;21020;-62
2022/06/16 05:57:55;;;;;;;4.37;1.70;;;24.30;59.70;;;;;;1874471;75;21099;-62
2022/06/16 06:00:25;;;;;;;3.05;1.55;;;24.30;59.40;;;;;;1874681;76;21032;-62
2022/06/16 06:03:01;;;;;;;4.10;1.50;;;24.40;59.50;;;;;;1874531;76;21644;-62
2022/06/16 06:05:32;;;;;;;2.90;1.40;;;24.40;59.30;;;;;;1874816;76;21482;-62
2022/06/16 06:16:26;;;;;;;5.12;1.70;;;24.70;56.10;;;;;;1874670;75;21087;-62
2022/06/16 06:18:58;;;;;;;2.85;1.62;;;24.70;56.50;;;;;;1874607;75;21105;-62
2022/06/16 06:24:15;;;;;;;8.88;1.87;;;24.80;56.70;;;;;;1874828;75;21044;-63
2022/06/16 06:26:44;;;;;;;5.15;1.60;;;24.90;56.70;;;;;;1874753;75;21032;-62
2022/06/16 06:29:14;;;;;;;2.12;1.50;;;25.00;56.00;;;;;;1874682;75;21456;-63
2022/06/16 06:31:43;;;;;;;2.80;1.80;;;25.00;56.00;;;;;;1874785;75;21048;-62
2022/06/16 06:34:13;;;;;;;2.47;1.90;;;25.10;55.70;;;;;;1874685;76;21024;-62
2022/06/16 06:36:44;;;;;;;3.40;1.57;;;25.10;55.60;;;;;;1874658;76;21052;-63
2022/06/16 06:39:14;;;;;;;2.95;1.40;;;25.10;55.20;;;;;;1874786;75;21086;-62
2022/06/16 06:41:43;;;;;;;3.50;1.50;;;25.10;54.60;;;;;;1874392;76;21028;-62
2022/06/16 06:44:13;;;;;;;2.98;1.40;;;25.10;55.40;;;;;;1874611;76;21028;-62
2022/06/16 06:46:42;;;;;;;2.40;1.32;;;25.10;55.00;;;;;;1874640;76;21036;-62
2022/06/16 06:49:12;;;;;;;2.12;1.67;;;25.10;54.60;;;;;;1874800;76;21004;-62
2022/06/16 06:51:41;;;;;;;3.22;1.65;;;25.00;54.50;;;;;;1874653;75;21041;-62
2022/06/16 06:54:11;;;;;;;4.40;1.82;;;25.10;54.60;;;;;;1874634;75;21008;-62
2022/06/16 06:56:40;;;;;;;3.08;1.40;;;25.10;54.90;;;;;;1874634;76;21094;-62
2022/06/16 06:59:13;;;;;;;3.20;1.72;;;25.10;55.20;;;;;;1874770;75;21036;-62
2022/06/16 07:01:42;;;;;;;2.65;1.50;;;25.10;54.60;;;;;;1874776;76;21157;-62
2022/06/16 07:04:11;;;;;;;3.12;1.40;;;25.10;54.60;;;;;;1874845;76;21008;-62
2022/06/16 07:06:41;;;;;;;4.90;1.60;;;25.10;54.60;;;;;;1874646;76;21103;-62
2022/06/16 07:09:12;;;;;;;3.40;1.77;;;25.00;54.90;;;;;;1874764;75;21102;-62
2022/06/16 07:11:42;;;;;;;4.20;1.72;;;25.00;55.60;;;;;;1874629;76;21034;-62
2022/06/16 07:14:12;;;;;;;8.05;2.20;;;25.00;55.80;;;;;;1874583;76;21032;-62
2022/06/16 07:16:41;;;;;;;2.60;1.70;;;25.00;55.20;;;;;;1874708;76;21090;-62
2022/06/16 07:19:11;;;;;;;3.72;2.72;;;25.00;54.20;;;;;;1874660;76;21008;-62
2022/06/16 07:21:40;;;;;;;2.92;1.50;;;25.00;54.00;;;;;;1874759;76;21032;-62
2022/06/16 07:24:10;;;;;;;5.10;1.90;;;25.10;54.60;;;;;;1874614;76;21056;-62
2022/06/16 07:26:39;;;;;;;4.30;1.55;;;25.20;54.50;;;;;;1874544;76;21036;-62
2022/06/16 07:29:10;;;;;;;4.90;1.80;;;25.30;54.30;;;;;;1874555;75;21072;-62
2022/06/16 07:31:39;;;;;;;4.50;1.72;;;25.40;54.30;;;;;;1874578;76;21024;-62
2022/06/16 07:34:09;;;;;;;4.60;1.60;;;25.50;53.60;;;;;;1874568;75;21008;-62
2022/06/16 07:36:38;;;;;;;5.55;1.80;;;25.70;53.70;;;;;;1874680;75;21025;-62
2022/06/16 07:41:58;;;;;;;1.80;1.62;;;25.80;53.40;;;;;;1759423;80;21068;-62
2022/06/16 07:44:27;;;;;;;7.80;1.62;;;25.90;52.80;;;;;;1759259;81;21139;-62
2022/06/16 07:46:57;;;;;;;6.08;1.80;;;26.10;52.50;;;;;;1759281;81;21139;-62
2022/06/16 07:49:29;;;;;;;1.90;1.60;;;26.20;51.30;;;;;;1759346;81;21069;-62
2022/06/16 07:51:58;;;;;;;4.65;1.52;;;26.20;51.40;;;;;;1759372;81;21057;-62
2022/06/16 07:54:29;;;;;;;3.30;1.50;;;26.20;51.00;;;;;;1759411;81;21132;-62
2022/06/16 07:57:00;;;;;;;1.95;1.70;;;26.10;50.20;;;;;;1759534;81;21136;-62
2022/06/16 07:59:29;;;;;;;2.70;1.85;;;25.90;50.40;;;;;;1730515;80;21089;-62
2022/06/16 08:01:59;;;;;;;3.80;1.67;;;25.90;51.40;;;;;;1759459;81;21115;-62
2022/06/16 08:04:28;;;;;;;3.55;1.67;;;26.00;51.10;;;;;;1759498;81;21133;-59
2022/06/16 08:07:03;;;;;;;5.95;2.65;;;26.00;51.70;;;;;;1758053;81;21112;-59
2022/06/16 08:09:34;;;;;;;2.37;1.75;;;26.00;49.90;;;;;;1758808;81;21179;-61
2022/06/16 08:12:03;;;;;;;2.75;2.10;;;25.90;49.00;;;;;;1758758;81;21108;-61
2022/06/16 08:14:36;;;;;;;3.98;1.62;;;25.80;49.90;;;;;;1758727;81;21195;-61
2022/06/16 08:17:06;;;;;;;5.70;1.72;;;25.70;49.80;;;;;;1758929;80;21151;-61
2022/06/16 08:19:35;;;;;;;3.33;1.65;;;25.50;51.80;;;;;;1758818;81;21069;-61
2022/06/16 08:22:05;;;;;;;3.45;2.40;;;25.60;50.90;;;;;;1758797;81;21100;-63
2022/06/16 08:24:34;;;;;;;3.33;1.87;;;25.70;51.40;;;;;;1758904;81;21151;-62
2022/06/16 08:27:04;;;;;;;3.98;2.08;;;25.80;51.40;;;;;;1758657;81;21104;-66
2022/06/16 08:29:35;;;;;;;3.95;2.05;;;25.90;51.90;;;;;;1758718;81;21127;-63
2022/06/16 08:32:05;;;;;;;4.40;1.92;;;26.00;51.20;;;;;;1758782;81;21143;-62
2022/06/16 08:34:34;;;;;;;4.12;1.60;;;26.00;51.60;;;;;;1758803;81;21120;-66
2022/06/16 08:37:05;;;;;;;3.50;1.50;;;26.20;49.70;;;;;;1758891;81;21068;-62
2022/06/16 08:39:34;;;;;;;4.47;1.60;;;26.30;50.70;;;;;;1758964;81;21093;-66
2022/06/16 08:42:09;;;;;;;3.37;1.75;;;26.40;51.40;;;;;;1768439;79;21128;-62
2022/06/16 08:44:47;;;;;;;2.75;2.02;;;26.50;50.60;;;;;;1741674;81;21077;-62
2022/06/16 08:47:25;;;;;;;5.42;3.33;;;26.60;50.30;;;;;;1730849;81;22049;-65
2022/06/16 08:50:21;;;;;;;4.30;1.80;;;26.70;51.00;;;;;;1732535;82;21092;-60
2022/06/16 08:53:00;;;;;;;2.90;1.77;;;26.60;49.90;;;;;;1739923;81;21096;-61
2022/06/16 08:55:38;;;;;;;1.70;1.60;;;26.50;47.80;;;;;;1741390;82;21646;-61
2022/06/16 08:58:13;;;;;;;1.75;1.60;;;26.60;48.60;;;;;;1771658;80;21605;-61
2022/06/16 09:00:47;;;;;;;2.62;1.47;;;26.70;47.80;;;;;;1771765;81;21087;-61
2022/06/16 09:03:17;;;;;;;;;;;26.80;47.40;;;;;;1774181;81;21127;-64
2022/06/16 09:05:54;;;;;;;3.00;1.42;;;26.80;45.80;;;;;;1776676;79;20172;-66
2022/06/16 09:08:42;;;;;;;5.67;1.90;;;26.70;46.30;;;;;;1742071;82;21048;-66
2022/06/16 09:11:19;;;;;;;8.03;1.62;;;26.70;47.00;;;;;;1771086;80;21123;-65
2022/06/16 09:14:11;;;;;;;11.38;2.80;;;26.90;46.70;;;;;;1771026;81;21093;-65
2022/06/16 09:16:51;;;;;;;4.10;1.60;;;26.90;46.30;;;;;;1771561;81;21123;-62
2022/06/16 09:19:34;;;;;;;2.37;1.47;;;27.00;45.90;;;;;;1770960;80;21573;-71
2022/06/16 09:22:13;;;;;;;4.83;1.60;;;27.00;45.40;;;;;;1771784;80;21191;-67
2022/06/16 09:25:17;;;;;;;2.27;1.42;;;26.90;45.60;;;;;;1771568;80;21139;-66
2022/06/16 09:27:54;;;;;;;3.33;1.75;;;27.00;45.90;;;;;;1771551;80;21114;-63
2022/06/16 09:30:30;;;;;;;3.20;1.85;;;27.10;46.50;;;;;;1771508;80;21131;-63
2022/06/16 09:33:04;;;;;;;3.77;1.47;;;27.20;46.60;;;;;;1771571;80;21078;-66
2022/06/16 09:35:45;;;;;;;2.22;1.70;;;27.40;46.00;;;;;;1771619;80;21507;-61
2022/06/16 09:38:26;;;;;;;3.17;1.50;;;27.50;46.00;;;;;;1771371;80;21229;-62
2022/06/16 09:41:01;;;;;;;5.97;3.90;;;27.50;45.30;;;;;;1769229;79;21171;-67
2022/06/16 09:43:33;;;;;;;5.00;1.42;;;27.40;45.20;;;;;;1758622;80;21143;-66
2022/06/16 09:46:08;;;;;;;2.25;1.35;;;27.40;44.70;;;;;;1758464;80;21115;-65
2022/06/16 09:48:37;;;;;;;;;;;27.40;45.20;;;;;;1761237;81;21114;-69
2022/06/16 09:51:26;;;;;;;4.42;1.70;;;27.40;44.60;;;;;;1758604;80;20157;-70
2022/06/16 09:54:04;;;;;;;3.12;1.67;;;27.40;45.60;;;;;;1757546;80;21138;-65
2022/06/16 09:56:48;;;;;;;4.03;1.42;;;27.30;45.50;;;;;;1758251;80;21564;-69
2022/06/16 09:59:22;;;;;;;1.65;1.00;;;27.30;44.40;;;;;;1758940;81;21107;-67
2022/06/16 10:01:57;;;;;;;2.80;1.30;;;27.30;44.20;;;;;;1758551;80;21580;-68
2022/06/16 10:04:27;;;;;;;2.75;1.05;;;27.40;44.10;;;;;;1758547;80;21083;-67
2022/06/16 10:07:14;;;;;;;2.62;1.40;;;27.50;43.10;;;;;;1758626;80;21106;-68
2022/06/16 10:10:05;;;;;;;3.00;1.90;;;27.40;43.70;;;;;;1758857;81;21122;-71
2022/06/16 10:12:36;;;;;;;5.85;1.98;;;27.40;44.80;;;;;;1758611;81;21158;-64
2022/06/16 10:15:33;;;;;;;7.83;2.33;;;27.50;45.40;;;;;;1758832;80;21210;-70
2022/06/16 10:18:03;;;;;;;2.00;1.27;;;27.50;44.80;;;;;;1768262;79;21531;-59
2022/06/16 10:20:33;;;;;;;2.92;1.30;;;27.40;44.40;;;;;;1768895;81;21187;-62
2022/06/16 10:23:07;;;;;;;1.62;1.27;;;27.30;44.60;;;;;;1769592;81;21068;-62
2022/06/16 10:25:39;;;;;;;5.72;1.50;;;27.20;44.60;;;;;;1800956;79;21056;-63
2022/06/16 10:28:23;;;;;;;2.50;1.55;;;27.20;44.40;;;;;;1801010;80;21520;-63
2022/06/16 10:30:53;;;;;;;4.20;2.10;;;27.40;44.00;;;;;;1802165;80;21566;-62
2022/06/16 10:33:25;;;;;;;3.47;1.37;;;27.40;43.80;;;;;;1801731;80;21122;-62
2022/06/16 10:35:57;;;;;;;3.35;1.80;;;27.50;44.20;;;;;;1801786;80;21080;-62
2022/06/16 10:38:32;;;;;;;3.80;1.72;;;27.40;43.60;;;;;;1769512;81;21044;-62
2022/06/16 10:41:05;;;;;;;2.65;1.37;;;27.30;43.80;;;;;;1769530;81;21056;-56
2022/06/16 10:43:40;;;;;;;4.37;1.60;;;27.30;44.10;;;;;;1801777;80;21151;-62
2022/06/16 10:46:14;;;;;;;3.90;1.22;;;27.30;44.30;;;;;;1801754;80;21085;-63
2022/06/16 10:48:52;;;;;;;3.27;1.40;;;27.40;44.00;;;;;;1768879;79;21100;-63
2022/06/16 10:51:25;;;;;;;2.47;1.47;;;27.40;44.40;;;;;;1768660;79;21147;-63
2022/06/16 10:54:21;;;;;;;2.35;1.22;;;27.50;44.70;;;;;;1769517;81;21076;-63
2022/06/16 10:56:51;;;;;;;1.72;1.30;;;27.60;45.10;;;;;;1769566;81;21073;-63
2022/06/16 10:59:26;;;;;;;2.22;1.10;;;27.60;44.40;;;;;;1769490;81;21068;-63
2022/06/16 11:01:58;;;;;;;3.42;1.20;;;27.70;44.30;;;;;;1769467;81;21060;-63
2022/06/16 11:04:36;;;;;;;6.37;2.52;;;27.70;44.00;;;;;;1769280;81;21065;-63
2022/06/16 11:07:06;;;;;;;2.95;1.22;;;27.70;44.20;;;;;;1769396;81;21515;-63
2022/06/16 11:09:36;;;;;;;4.20;1.50;;;27.60;43.80;;;;;;1769356;81;21127;-63
2022/06/16 11:12:17;;;;;;;1.32;1.12;;;27.50;44.00;;;;;;1769413;81;21069;-63
2022/06/16 11:14:49;;;;;;;2.17;1.15;;;27.40;44.10;;;;;;1769536;81;21159;-62
2022/06/16 11:17:28;;;;;;;2.35;1.20;;;27.30;43.90;;;;;;1801589;78;21142;-62
2022/06/16 11:20:03;;;;;;;2.45;1.22;;;27.40;44.20;;;;;;1801843;80;21049;-63
2022/06/16 11:22:35;;;;;;;1.30;1.10;;;27.50;43.90;;;;;;1801850;80;21060;-63
2022/06/16 11:25:07;;;;;;;2.92;1.65;;;27.60;42.70;;;;;;1801867;80;21141;-63
2022/06/16 11:27:42;;;;;;;3.67;1.20;;;27.60;43.00;;;;;;1774197;78;21061;-63
2022/06/16 11:30:35;;;;;;;3.52;1.67;;;27.60;43.20;;;;;;1769283;81;21044;-63
2022/06/16 11:37:04;;;;;;;4.85;1.30;;;27.60;44.70;;;;;;1883129;72;21089;-63
2022/06/16 11:39:42;;;;;;;3.80;1.10;;;27.80;44.50;;;;;;1839063;78;21054;-63
2022/06/16 11:42:29;;;;;;;3.08;1.40;;;27.80;43.70;;;;;;1839165;78;21288;-63
2022/06/16 11:45:07;;;;;;;7.17;1.60;;;27.80;43.70;;;;;;1837310;78;21109;-63
2022/06/16 11:48:01;;;;;;;2.02;1.10;;;27.70;42.80;;;;;;1838592;78;21070;-63
2022/06/16 11:50:35;;;;;;;2.17;1.30;;;27.70;43.20;;;;;;1838948;75;21110;-63
2022/06/16 11:53:38;;;;;;;3.27;1.30;;;27.70;43.30;;;;;;1809276;78;21144;-63
2022/06/16 11:56:08;;;;;;;4.75;2.30;;;27.60;43.40;;;;;;1921167;73;21080;-63
2022/06/16 11:59:06;;;;;;;5.78;1.52;;;27.50;44.30;;;;;;1962663;72;21046;-63
2022/06/16 12:01:41;;;;;;;2.12;1.10;;;27.50;44.30;;;;;;1926310;73;21027;-63
2022/06/16 12:04:33;;;;;;;2.08;1.20;;;27.40;44.20;;;;;;1899658;75;21051;-63
2022/06/16 12:07:08;;;;;;;2.40;1.17;;;27.50;44.80;;;;;;1962965;72;21028;-62
2022/06/16 12:09:55;;;;;;;3.25;1.80;;;27.60;44.70;;;;;;1932971;72;21078;-62
2022/06/16 12:12:39;;;;;;;3.08;1.20;;;27.70;44.50;;;;;;1962911;72;21028;-62
2022/06/16 12:15:20;;;;;;;4.37;1.77;;;27.80;44.60;;;;;;1962798;72;21188;-61
2022/06/16 12:18:21;;;;;;;1.60;1.10;;;27.80;43.80;;;;;;1889554;73;21274;-61
2022/06/16 12:21:10;;;;;;;4.03;1.50;;;28.00;43.20;;;;;;1962923;72;21106;-62
2022/06/16 12:23:45;;;;;;;2.95;1.22;;;28.00;43.00;;;;;;1962912;72;21031;-63
2022/06/16 12:26:44;;;;;;;7.92;5.35;;;28.00;41.60;;;;;;1962622;72;20992;-63
2022/06/16 12:29:31;;;;;;;3.00;1.22;;;28.00;42.20;;;;;;1961665;72;21032;-63
2022/06/16 12:32:28;;;;;;;5.03;1.67;;;28.00;42.60;;;;;;1952064;72;21036;-63
2022/06/16 12:35:05;;;;;;;3.90;1.67;;;27.90;43.10;;;;;;1962171;71;21008;-63
2022/06/16 12:37:37;;;;;;;5.83;1.65;;;27.70;43.20;;;;;;1962871;73;21514;-63
2022/06/16 12:40:30;;;;;;;2.95;1.45;;;27.60;43.00;;;;;;1962614;72;21447;-63
2022/06/16 12:43:02;;;;;;;2.37;1.40;;;27.50;43.40;;;;;;1962888;72;21064;-63
2022/06/16 12:45:34;;;;;;;3.15;1.47;;;27.40;43.20;;;;;;1962864;72;21455;-62
2022/06/16 12:48:06;;;;;;;3.55;1.30;;;27.50;43.20;;;;;;1963020;72;21461;-63
2022/06/16 12:50:38;;;;;;;3.22;1.30;;;27.60;42.70;;;;;;1961696;72;21030;-63
2022/06/16 12:53:09;;;;;;;2.92;1.57;;;27.70;43.90;;;;;;1962910;72;21032;-63
2022/06/16 12:55:45;;;;;;;2.77;1.27;;;27.70;43.10;;;;;;1962398;71;21487;-63
2022/06/16 12:58:26;;;;;;;4.58;1.60;;;27.80;43.20;;;;;;1962345;72;21024;-63
2022/06/16 13:01:00;;;;;;;2.02;1.17;;;28.00;43.00;;;;;;1962862;72;21083;-64
2022/06/16 13:03:50;;;;;;;2.92;1.92;;;28.00;42.20;;;;;;1962857;72;21020;-63
2022/06/16 13:06:22;;;;;;;2.77;1.70;;;28.00;41.80;;;;;;1962941;72;21490;-63
2022/06/16 13:08:55;;;;;;;6.72;1.98;;;27.90;41.20;;;;;;1962969;72;20997;-63
2022/06/16 13:11:29;;;;;;;3.37;1.55;;;27.90;41.80;;;;;;1962830;73;21107;-63
2022/06/16 13:13:59;;;;;;;;;;;27.80;41.90;;;;;;1965791;73;21102;-63
2022/06/16 13:16:31;;;;;;;1.70;1.60;;;27.80;41.40;;;;;;1962801;72;20104;-64
2022/06/16 13:19:21;;;;;;;3.25;1.30;;;27.80;42.20;;;;;;1962970;72;21552;-64
2022/06/16 13:22:05;;;;;;;2.30;1.50;;;27.60;42.30;;;;;;1962925;72;21127;-64
2022/06/16 13:24:49;;;;;;;5.35;2.22;;;27.40;42.70;;;;;;1963239;72;21044;-64
2022/06/16 13:27:33;;;;;;;5.35;1.67;;;27.30;43.20;;;;;;1963192;72;21012;-64
2022/06/16 13:30:11;;;;;;;6.28;2.00;;;27.10;43.30;;;;;;1950905;73;21556;-64
2022/06/16 13:32:43;;;;;;;6.80;2.20;;;27.10;43.50;;;;;;1963184;73;21165;-63
2022/06/16 13:35:18;;;;;;;2.30;1.70;;;27.10;43.70;;;;;;1959454;72;21009;-64
2022/06/16 13:37:50;;;;;;;2.30;1.55;;;27.30;43.00;;;;;;1963188;73;21451;-64
2022/06/16 13:43:18;;;;;;;4.30;1.90;;;27.50;43.10;;;;;;1880001;73;21088;-63
2022/06/16 13:45:59;;;;;;;1.75;1.60;;;27.60;42.90;;;;;;1916408;75;21083;-63
2022/06/16 13:48:33;;;;;;;4.08;1.40;;;27.60;42.60;;;;;;1916425;75;21029;-64
2022/06/16 13:51:04;;;;;;;;;;;27.70;42.60;;;;;;1934999;74;21005;-64
2022/06/16 13:53:50;;;;;;;4.65;1.60;;;27.70;41.30;;;;;;1932270;74;20108;-64
2022/06/16 13:56:28;;;;;;;2.58;1.47;;;27.60;42.60;;;;;;1916537;73;21025;-64
2022/06/16 13:59:00;;;;;;;5.35;2.52;;;27.50;42.50;;;;;;1932279;74;21500;-63